Balmorhea, TX

1:38 PM CDT on April 19, 2015 (GMT -0500)
Pecos Municipal | | Change Station
CLOSE
Current Station
Airport
Location: Pecos,
Elevation: 2612 ft
Nearby Weather Stations

Elev 2612 ft 31.38 °N, 103.51 °W | Updated 23 minutes ago

Clear
Clear
76 °F
Feels Like 76 °F
N
13
Wind Variable Wind from North
Gusts 21 mph

Today
High -- | Low -- °F
--% Chance of Precip.
Yesterday
High -- | Low -- °F
Precip. -- in
7:22 AM 8:25 PM
New Moon, 1% visible
Pressure 29.97 in
Visibility 10.0 miles
Clouds Clear
Dew Point 33 °F
Humidity 21%
Rainfall 0.00 in
Snow Depth Not available.
UV 12 out of 12
Pollen 10.00 out of 12
Air Quality Not available.
Flu Activity Local Activity
METAR KPEQ 191815Z AUTO 01011G18KT 10SM CLR 24/01 A2997 RMK AO2 T02430007

More Conditions Fewer Conditions

Pressure 29.97 in
Visibility 10.0 miles
Clouds Clear
Dew Point 33 °F
Humidity 21%
Rainfall 0.00 in
Snow Depth Not available.
UV 12 out of 12
Pollen 10.00 out of 12
Air Quality Not available.
Flu Activity Local Activity
METAR KPEQ 191815Z AUTO 01011G18KT 10SM CLR 24/01 A2997 RMK AO2 T02430007

More Conditions Fewer Conditions

10-Day Weather Forecast

Almanac

Astronomy

Apr. 19, 2015 Rise Set
Actual Time
Civil Twilight
Nautical Twilight
Astronomical Twilight
Moon
Length of Visible Light
Length of Day
Tomorrow will be .
, % of the Moon is Illuminated

Today's Extremes

State Highs State Lows

Community

WunderPhotos

Upload Photos

1,814,900 photos uploaded!

WunderBlogs® & News

Nearby

Air Quality

  Air Quality AQ Index Pollutant
Not available.

Snow Depth

Station Depth Elevation

Earthquake Activity

City Distance Mag. Time & Date
Minimum magnitude displayed is 2.5.

Coastal Water Temperatures

Place Temperature

Stations

Nearby Weather Stations

Station Location Temp. Windchill Dew Point Humidity Wind Precip. Elev Updated Type